Vernon, TX

4:16 PM CST on February 13, 2016 (GMT -0600)
KD5PBR Turner Farm | | Change Station
CLOSE
Current Station
Personal Weather Station
Location: Odell, TX
Elevation: 1341 ft
Nearby Weather Stations

Elev 1341 ft 34.36 °N, 99.42 °W | Updated 5 seconds ago

Clear
Clear
61.6 °F
Feels Like 61.6 °F
N
0.0
Wind Variable Wind from SSE
Gusts 4.0 mph

Today
High -- | Low -- °F
--% Chance of Precip.
Yesterday
High -- | Low -- °F
Precip. -- in
Pressure 30.12 in
Visibility 10.0 miles
Clouds Clear
Dew Point 40 °F
Humidity 45%
Rainfall 0.00 in
Snow Depth Not available.
7:25 AM 6:18 PM
Waxing Crescent, 34% visible
METAR KF05 132155Z AUTO 17013G18KT 10SM CLR 18/00 A3012 RMK AO1 T01761005
Pressure 30.12 in
Visibility 10.0 miles
Clouds Clear
Dew Point 40 °F
Humidity 45%
Rainfall 0.00 in
Snow Depth Not available.
7:25 AM 6:18 PM
Waxing Crescent, 34% visible
METAR KF05 132155Z AUTO 17013G18KT 10SM CLR 18/00 A3012 RMK AO1 T01761005

10-Day Weather Forecast

Almanac

Astronomy

Feb. 13, 2016 Rise Set
Actual Time
Civil Twilight
Nautical Twilight
Astronomical Twilight
Moon
Length of Visible Light
Length of Day
Tomorrow will be .
, % of the Moon is Illuminated

Today's Extremes

State Highs State Lows

Community

WunderPhotos

Upload Photos

1,892,687 photos uploaded!

WunderBlog® & News

Nearby

Air Quality

  Air Quality AQ Index Pollutant
Not available.

Snow Depth

Station Depth Elevation

Earthquake Activity

City Distance Mag. Time & Date
Minimum magnitude displayed is 2.5.

Coastal Water Temperatures

Place Temperature

Stations

Nearby Weather Stations

Station Location Temp. Windchill Dew Point Humidity Wind Precip. Elev Updated Type
                   

Watches & Warnings

There are currently no watches in effect.